Skip Navigation Links Skip Navigation Links

Current Weather

Dutchess County, Poughkeepsie, N.Y.

For information only: do not use for flight planning or navigation.
Latest weather
Observation time Saturday, June 6, 2020 7:53 PM EDT
Local time Saturday, June 6, 2020 8:46 PM EDT
Flight conditions Visual Meteorological Conditions
Winds
Wind direction West-Northwest (300°)
Wind speed 10 mph
Visibility 10 mi.
Sky condition
Ceiling unlimited
Sky clear
Temperature 79°F
Dewpoint 46°F
Altimeter 29.74 in.Hg
Pressure change last 3 hours-0.07 in.Hg
Pressure rising more quickly
Derived measurements
Relative humidity 31%
Heat index 79°F
Density altitude 1808 ft.
Sea-level pressure 29.73 in.Hg
Climate data
Temperature minimum, last 6 hours 79°F
Temperature maximum, last 6 hours 89°F
Remarks
Automated weather observing station with precipitation discriminator.
METAR KPOU 062353Z 30009KT 10SM CLR 26/08 A2974 RMK AO2 SLP067 T02610078 10317 20261 53025

Settings

Location code

InnerDrive.Weather 4.0.6770.0 Release CLR 4.0.30319.42000
Copyright ©2018 Inner Drive Technology. All rights reserved. Portions Copyright ©1986-2018 David Braverman.

Find weather

Site navigation


Skip Navigation Links

Place info

Page info

PayPal - The safer, easier way to pay online!

Return home.

Copyright ©2020 Inner Drive Technology. Purveyors of fine, hand-crafted computer software. Page printed 2020-06-07T00:46:41 UTC.